createdAt,value
2022-12-08T00:03:50.352Z,2.6
2022-12-08T00:13:43.059Z,2.6
2022-12-08T00:18:49.492Z,2.6
2022-12-08T00:23:55.877Z,2.5
2022-12-08T00:28:52.256Z,2.5
2022-12-08T00:34:08.735Z,2.5
2022-12-08T00:39:05.094Z,2.5
2022-12-08T00:44:21.560Z,2.4
2022-12-08T00:49:27.907Z,2.4
2022-12-08T00:54:34.275Z,2.3
2022-12-08T00:59:40.697Z,2.3
2022-12-08T01:04:47.081Z,2.3
2022-12-08T01:09:53.469Z,2.3
2022-12-08T01:14:49.861Z,2.2
2022-12-08T01:20:06.563Z,2.2
2022-12-08T01:25:12.622Z,2.2
2022-12-08T01:30:19.046Z,2.1
2022-12-08T01:35:25.396Z,2.2
2022-12-08T01:40:31.781Z,2.1
2022-12-08T01:45:38.187Z,2.1
2022-12-08T01:50:44.540Z,2.1
2022-12-08T01:55:52.030Z,2.2
2022-12-08T02:00:58.714Z,2.2
2022-12-08T02:06:05.099Z,2.2
2022-12-08T02:11:11.691Z,2.2
2022-12-08T02:16:18.187Z,2.3
2022-12-08T02:21:28.468Z,2.3
2022-12-08T02:26:30.832Z,2.3
2022-12-08T02:31:37.233Z,2.4
2022-12-08T02:41:49.991Z,2.4
2022-12-08T02:46:56.509Z,2.5
2022-12-08T02:52:02.869Z,2.5
2022-12-08T02:57:09.257Z,2.6
2022-12-08T03:02:05.656Z,2.6
2022-12-08T03:08:34.146Z,2.6
2022-12-08T03:17:34.788Z,2.7
2022-12-08T03:22:45.140Z,2.7
2022-12-08T03:27:47.573Z,2.8
2022-12-08T03:32:54.093Z,2.8
2022-12-08T03:38:00.540Z,2.8
2022-12-08T03:43:07.034Z,2.8
2022-12-08T03:48:13.446Z,2.8
2022-12-08T03:53:19.786Z,2.8
2022-12-08T03:58:26.176Z,2.9
2022-12-08T04:03:36.570Z,2.9
2022-12-08T04:08:43.120Z,2.9
2022-12-08T04:13:45.518Z,2.9
2022-12-08T04:20:04.372Z,3.0
2022-12-08T04:24:22.297Z,3.0
2022-12-08T04:28:54.793Z,3.0
2022-12-08T04:34:01.182Z,3.0
2022-12-08T04:39:17.584Z,3.0
2022-12-08T04:44:47.984Z,3.1
2022-12-08T04:49:20.315Z,3.1
2022-12-08T04:54:40.741Z,3.1
2022-12-08T04:59:43.093Z,3.1
2022-12-08T05:04:49.477Z,3.1
2022-12-08T05:20:08.637Z,3.2
2022-12-08T05:30:21.403Z,3.2
2022-12-08T05:35:27.786Z,3.2
2022-12-08T05:40:34.232Z,3.2
2022-12-08T05:45:40.773Z,3.2
2022-12-08T05:51:21.184Z,3.2
2022-12-08T05:56:28.613Z,3.2
2022-12-08T06:01:35.044Z,3.2
2022-12-08T06:06:45.336Z,3.2
2022-12-08T06:11:47.815Z,3.2
2022-12-08T06:16:54.274Z,3.2
2022-12-08T06:22:00.540Z,3.2
2022-12-08T06:27:06.939Z,3.2
2022-12-08T06:32:14.914Z,3.3
2022-12-08T06:37:21.292Z,3.3
2022-12-08T06:42:27.683Z,3.3
2022-12-08T06:53:14.516Z,3.3
2022-12-08T07:03:28.303Z,3.3
2022-12-08T07:08:34.774Z,3.3
2022-12-08T07:23:43.873Z,3.3
2022-12-08T07:28:59.311Z,3.3
2022-12-08T07:34:10.680Z,3.3
2022-12-08T07:39:13.047Z,3.3
2022-12-08T07:44:19.452Z,3.3
2022-12-08T07:49:59.873Z,3.3
2022-12-08T07:55:07.247Z,3.3
2022-12-08T08:05:20.016Z,3.3
2022-12-08T08:10:27.961Z,3.3
2022-12-08T08:15:34.576Z,3.3
2022-12-08T08:20:40.702Z,3.3
2022-12-08T08:30:57.551Z,3.3
2022-12-08T08:35:59.882Z,3.3
2022-12-08T08:41:06.380Z,3.3
2022-12-08T08:46:12.851Z,3.3
2022-12-08T08:51:19.142Z,3.3
2022-12-08T08:56:29.534Z,3.3
2022-12-08T09:01:22.040Z,3.3
2022-12-08T09:07:01.434Z,3.3
2022-12-08T09:11:44.780Z,3.4
2022-12-08T09:17:11.220Z,3.4
2022-12-08T09:22:21.584Z,3.4
2022-12-08T09:26:53.900Z,3.4
2022-12-08T09:32:10.304Z,3.4
2022-12-08T09:37:06.729Z,3.4
2022-12-08T09:42:23.200Z,3.5
2022-12-08T09:47:53.652Z,3.5
2022-12-08T09:52:35.983Z,3.5
2022-12-08T09:57:42.335Z,3.6
2022-12-08T10:07:59.210Z,3.6
2022-12-08T10:13:01.506Z,3.7
2022-12-08T10:18:07.996Z,3.7
2022-12-08T10:23:14.406Z,3.8
2022-12-08T10:28:20.760Z,3.8
2022-12-08T10:33:27.136Z,3.8
2022-12-08T10:38:33.536Z,3.8
2022-12-08T10:43:39.929Z,3.9
2022-12-08T10:48:46.413Z,3.9
2022-12-08T10:53:52.807Z,3.9
2022-12-08T11:14:18.353Z,4.1
2022-12-08T11:19:24.816Z,4.2
2022-12-08T11:24:37.257Z,4.2
2022-12-08T11:29:37.585Z,4.3
2022-12-08T11:34:43.965Z,4.3
2022-12-08T11:39:50.377Z,4.3
2022-12-08T11:44:56.862Z,4.4
2022-12-08T11:50:03.757Z,4.4
2022-12-08T11:55:09.752Z,4.4
2022-12-08T12:00:16.192Z,4.4
2022-12-08T12:21:15.835Z,4.6
2022-12-08T12:31:29.767Z,4.5
2022-12-08T12:36:36.113Z,4.6
2022-12-08T12:41:56.545Z,4.6
2022-12-08T12:46:47.896Z,4.6
2022-12-08T12:51:55.377Z,4.6
2022-12-08T12:57:01.816Z,4.6
2022-12-08T13:02:08.259Z,4.7
2022-12-08T13:07:14.664Z,4.7
2022-12-08T13:12:24.968Z,4.7
2022-12-08T13:17:27.317Z,4.7
2022-12-08T13:22:33.795Z,4.7
2022-12-08T13:33:16.735Z,4.7
2022-12-08T13:37:55.350Z,4.7
2022-12-08T13:42:59.448Z,4.7
2022-12-08T13:48:23.870Z,4.7
2022-12-08T13:58:18.921Z,4.7
2022-12-08T14:03:29.245Z,4.7
2022-12-08T14:08:59.977Z,4.7
2022-12-08T14:13:26.975Z,4.7
2022-12-08T14:19:08.468Z,4.7
2022-12-08T14:23:40.759Z,4.6
2022-12-08T14:28:57.245Z,4.6
2022-12-08T14:34:03.602Z,4.6
2022-12-08T14:39:10.028Z,4.6
2022-12-08T14:44:20.394Z,4.5
2022-12-08T14:49:22.772Z,4.5
2022-12-08T14:54:29.247Z,4.4
2022-12-08T14:59:25.623Z,4.4
2022-12-08T15:04:42.104Z,4.4
2022-12-08T15:09:48.453Z,4.3
2022-12-08T15:14:44.835Z,4.3
2022-12-08T15:19:50.245Z,4.2
2022-12-08T15:25:07.665Z,4.1
2022-12-08T15:30:14.051Z,4.0
2022-12-08T15:35:24.515Z,3.9
2022-12-08T15:40:26.836Z,3.8
2022-12-08T15:45:33.348Z,3.7
2022-12-08T15:50:59.851Z,3.6
2022-12-08T15:56:27.786Z,3.5
2022-12-08T16:01:15.787Z,3.5
2022-12-08T16:06:20.189Z,3.4
2022-12-08T16:16:12.003Z,3.3
2022-12-08T16:21:45.577Z,3.3
2022-12-08T16:27:22.091Z,3.2
2022-12-08T16:31:55.425Z,3.1
2022-12-08T16:36:37.633Z,3.1
2022-12-08T16:41:48.066Z,3.0
2022-12-08T16:46:50.426Z,2.9
2022-12-08T16:51:56.830Z,2.8
2022-12-08T16:57:03.305Z,2.7
2022-12-08T17:02:13.753Z,2.6
2022-12-08T17:07:06.215Z,2.5
2022-12-08T17:12:56.642Z,2.3
2022-12-08T17:18:48.174Z,2.3
2022-12-08T17:23:10.447Z,2.3
2022-12-08T17:28:37.147Z,2.2
2022-12-08T17:33:26.714Z,2.2
2022-12-08T17:38:29.741Z,2.1
2022-12-08T17:44:00.407Z,2.1
2022-12-08T17:48:42.730Z,2.1
2022-12-08T17:53:49.148Z,2.1
2022-12-08T18:04:01.913Z,2.1
2022-12-08T18:10:00.400Z,2.1
2022-12-08T18:19:21.027Z,2.1
2022-12-08T18:24:27.462Z,2.2
2022-12-08T18:29:54.178Z,2.2
2022-12-08T18:34:30.321Z,2.2
2022-12-08T18:39:46.754Z,2.2
2022-12-08T18:44:43.369Z,2.2
2022-12-08T18:49:59.818Z,2.2
2022-12-08T19:00:13.097Z,2.2
2022-12-08T19:05:19.518Z,2.3
2022-12-08T19:10:25.851Z,2.3
2022-12-08T19:15:32.252Z,2.3
2022-12-08T19:20:38.900Z,2.3
2022-12-08T19:26:09.374Z,2.3
2022-12-08T19:30:51.765Z,2.3
2022-12-08T19:35:58.128Z,2.3
2022-12-08T19:40:54.451Z,2.3
2022-12-08T19:46:11.176Z,2.3
2022-12-08T19:51:31.399Z,2.3
2022-12-08T19:56:13.713Z,2.4
2022-12-08T20:01:30.209Z,2.3
2022-12-08T20:06:36.527Z,2.3
2022-12-08T20:11:42.864Z,2.4
2022-12-08T20:17:09.309Z,2.4
2022-12-08T20:21:45.659Z,2.4
2022-12-08T20:27:02.099Z,2.4
2022-12-08T20:32:08.552Z,2.4
2022-12-08T20:37:39.018Z,2.4
2022-12-08T20:42:21.443Z,2.4
2022-12-08T20:47:28.004Z,2.4
2022-12-08T20:52:48.496Z,2.4
2022-12-08T20:57:40.760Z,2.3
2022-12-08T21:02:50.908Z,2.3
2022-12-08T21:07:53.676Z,2.3
2022-12-08T21:12:50.066Z,2.3
2022-12-08T21:18:06.542Z,2.3
2022-12-08T21:23:12.943Z,2.2
2022-12-08T21:28:19.298Z,2.2
2022-12-08T21:33:49.690Z,2.2
2022-12-08T21:38:32.120Z,2.2
2022-12-08T21:48:35.089Z,2.2
2022-12-08T21:53:51.376Z,2.2
2022-12-08T21:58:57.777Z,2.2
2022-12-08T22:09:10.726Z,2.2
2022-12-08T22:14:16.841Z,2.2
2022-12-08T22:19:13.567Z,2.2
2022-12-08T22:24:29.754Z,2.2
2022-12-08T22:29:40.276Z,2.2
2022-12-08T22:40:12.980Z,2.2
2022-12-08T22:44:55.276Z,2.2
2022-12-08T22:50:21.706Z,2.2
2022-12-08T22:55:08.116Z,2.1
2022-12-08T23:00:05.019Z,2.1
2022-12-08T23:05:19.947Z,2.1
2022-12-08T23:10:27.201Z,2.1
2022-12-08T23:15:57.859Z,2.1
2022-12-08T23:20:40.264Z,2.1
2022-12-08T23:25:46.553Z,2.1
2022-12-08T23:31:17.399Z,2.1
2022-12-08T23:35:59.307Z,2.1
2022-12-08T23:41:05.931Z,2.1
2022-12-08T23:52:30.834Z,2.1
2022-12-08T23:56:30.048Z,2.1
